Time;durP1;ratioP1;P1;durP2;ratioP2;P2;SDS_P1;SDS_P2;PMS_P1;PMS_P2;Temp;Humidity;BMP_temperature;BMP_pressure;BME280_temperature;BME280_humidity;BME280_pressure;Samples;Min_cycle;Max_cycle;Signal;HPM_P1;HPM_P2
2024/02/14 00:00:49;;;;;;;26.20;18.70;;;;;;;11.07;66.05;100063.55;105105;1260;62558;-56
2024/02/14 00:03:16;;;;;;;24.50;18.90;;;;;;;11.06;65.79;100061.56;105007;1260;60483;-56
2024/02/14 00:05:44;;;;;;;25.60;19.50;;;;;;;11.00;65.66;100065.06;104933;1258;60531;-57
2024/02/14 00:08:14;;;;;;;17.70;9.20;;;;;;;10.93;65.77;100066.26;105956;1258;65356;-55
2024/02/14 00:10:44;;;;;;;24.60;17.70;;;;;;;10.91;65.60;100071.43;105813;1260;60417;-58
2024/02/14 00:13:12;;;;;;;23.80;17.30;;;;;;;10.90;65.53;100071.36;108543;1261;64215;-56
2024/02/14 00:15:42;;;;;;;25.90;18.60;;;;;;;10.88;65.53;100068.16;108586;1260;59999;-57
2024/02/14 00:18:10;;;;;;;23.70;19.00;;;;;;;10.87;65.76;100072.09;108478;1257;58875;-55
2024/02/14 00:20:39;;;;;;;18.70;9.40;;;;;;;10.87;65.74;100071.98;108534;1256;64924;-56
2024/02/14 00:23:06;;;;;;;26.90;18.80;;;;;;;10.85;65.89;100072.69;108478;1257;61938;-56
2024/02/14 00:25:34;;;;;;;25.30;17.80;;;;;;;10.80;65.87;100073.58;108534;1254;62530;-56
2024/02/14 00:28:03;;;;;;;26.10;17.90;;;;;;;10.82;65.79;100073.65;106513;1260;61166;-57
2024/02/14 00:30:31;;;;;;;24.30;17.00;;;;;;;10.84;65.74;100073.10;103940;1261;61190;-54
2024/02/14 00:32:59;;;;;;;24.20;17.70;;;;;;;10.85;65.73;100072.27;103968;1260;65471;-54
2024/02/14 00:35:27;;;;;;;24.50;17.80;;;;;;;10.85;65.66;100071.27;104161;1257;60996;-54
2024/02/14 00:37:55;;;;;;;23.50;17.20;;;;;;;10.86;65.65;100076.05;104128;1257;63741;-55
2024/02/14 00:40:23;;;;;;;17.90;8.80;;;;;;;10.83;65.73;100073.52;104175;1262;60592;-55
2024/02/14 00:42:51;;;;;;;23.10;16.40;;;;;;;10.80;65.49;100071.67;104164;1259;60427;-55
2024/02/14 00:45:18;;;;;;;20.00;15.20;;;;;;;10.75;65.52;100067.86;104264;1258;63694;-54
2024/02/14 00:47:46;;;;;;;20.70;15.90;;;;;;;10.73;65.46;100068.05;106043;1257;61452;-54
2024/02/14 00:50:14;;;;;;;22.10;16.40;;;;;;;10.70;65.72;100064.29;104130;1257;62437;-57
2024/02/14 00:52:43;;;;;;;15.60;9.30;;;;;;;10.65;65.85;100061.89;108038;1256;60104;-54
2024/02/14 00:55:11;;;;;;;27.10;17.30;;;;;;;10.61;65.96;100063.60;108525;1257;58543;-56
2024/02/14 00:57:38;;;;;;;22.20;14.80;;;;;;;10.60;65.85;100065.45;105426;1259;63650;-57
2024/02/14 01:00:06;;;;;;;24.30;16.70;;;;;;;10.62;65.96;100063.39;104119;1260;61312;-57
2024/02/14 01:02:34;;;;;;;26.50;16.70;;;;;;;10.61;65.92;100058.18;106516;1257;63701;-56
2024/02/14 01:05:04;;;;;;;23.80;16.00;;;;;;;10.56;66.00;100054.22;106678;1257;60563;-55
2024/02/14 01:07:32;;;;;;;24.10;15.80;;;;;;;10.48;65.90;100048.27;108555;1255;59883;-56
2024/02/14 01:09:59;;;;;;;15.70;8.40;;;;;;;10.42;65.98;100047.18;108508;1258;63807;-56
2024/02/14 01:12:29;;;;;;;22.00;16.20;;;;;;;10.43;66.10;100049.02;108588;1257;60125;-56
2024/02/14 01:14:57;;;;;;;20.60;15.40;;;;;;;10.49;66.12;100050.48;108572;1257;62524;-56
2024/02/14 01:17:25;;;;;;;22.60;15.70;;;;;;;10.50;66.23;100050.56;108541;1256;58861;-56
2024/02/14 01:19:52;;;;;;;27.90;17.80;;;;;;;10.51;66.43;100053.25;108624;1257;58236;-57
2024/02/14 01:22:21;;;;;;;16.10;7.20;;;;;;;10.53;66.39;100053.62;108511;1257;63877;-58
2024/02/14 01:24:49;;;;;;;21.30;14.60;;;;;;;10.58;66.24;100054.06;108513;1257;62261;-57
2024/02/14 01:27:16;;;;;;;20.50;15.10;;;;;;;10.62;66.17;100051.48;108524;1257;62463;-55
2024/02/14 01:29:44;;;;;;;18.20;14.20;;;;;;;10.65;66.04;100055.95;108520;1256;59090;-56
2024/02/14 01:32:12;;;;;;;19.60;14.00;;;;;;;10.63;65.85;100047.05;108449;1255;58891;-56
2024/02/14 01:34:42;;;;;;;20.80;13.80;;;;;;;10.57;65.89;100041.20;104535;1260;64939;-56
2024/02/14 01:37:10;;;;;;;11.80;6.30;;;;;;;10.48;65.92;100042.63;108578;1256;60294;-57
2024/02/14 01:39:37;;;;;;;19.20;12.90;;;;;;;10.44;65.93;100049.27;108044;1256;62424;-57
2024/02/14 01:42:06;;;;;;;16.90;11.90;;;;;;;10.43;65.95;100049.70;104153;1258;60449;-56
2024/02/14 01:44:36;;;;;;;16.20;12.40;;;;;;;10.45;65.96;100050.23;104137;1257;60348;-56
2024/02/14 01:47:04;;;;;;;17.70;12.90;;;;;;;10.47;66.15;100056.39;104150;1255;67479;-56
2024/02/14 01:49:31;;;;;;;25.10;13.50;;;;;;;10.43;66.52;100059.55;103953;1258;60581;-57
2024/02/14 01:52:02;;;;;;;8.40;3.80;;;;;;;10.39;66.50;100060.91;104268;1256;62621;-55
2024/02/14 01:54:30;;;;;;;18.70;12.30;;;;;;;10.38;66.29;100056.45;108498;1256;59211;-57
2024/02/14 01:56:58;;;;;;;17.70;12.10;;;;;;;10.38;66.20;100057.64;108415;1257;58511;-56
2024/02/14 01:59:26;;;;;;;18.70;12.40;;;;;;;10.40;66.20;100058.17;108579;1255;66087;-57
2024/02/14 02:01:54;;;;;;;19.10;12.60;;;;;;;10.42;66.22;100056.45;105789;1257;62315;-55
2024/02/14 02:04:21;;;;;;;21.30;14.20;;;;;;;10.40;66.20;100060.14;107791;1257;63794;-55
2024/02/14 02:06:49;;;;;;;10.50;4.10;;;;;;;10.38;66.25;100063.64;104174;1257;60954;-54
2024/02/14 02:09:17;;;;;;;21.10;12.30;;;;;;;10.38;66.20;100060.29;104124;1258;60190;-55
2024/02/14 02:11:53;;;;;;;19.30;11.40;;;;;;;10.35;65.93;100060.88;104127;1260;63872;-55
2024/02/14 02:14:21;;;;;;;15.60;11.10;;;;;;;10.29;65.92;100065.25;108604;1256;62357;-57
2024/02/14 02:16:49;;;;;;;19.60;12.60;;;;;;;10.21;66.02;100065.02;108495;1256;62454;-57
2024/02/14 02:19:17;;;;;;;10.70;5.90;;;;;;;10.13;66.31;100063.20;108617;1256;58451;-56
2024/02/14 02:21:46;;;;;;;18.30;11.70;;;;;;;10.08;66.33;100066.48;108467;1254;58953;-57
2024/02/14 02:24:13;;;;;;;18.80;11.10;;;;;;;10.08;66.50;100068.91;108441;1255;63691;-57
2024/02/14 02:26:41;;;;;;;17.30;11.70;;;;;;;10.13;66.39;100072.89;106319;1257;61387;-57
2024/02/14 02:29:09;;;;;;;16.40;11.30;;;;;;;10.16;66.49;100071.89;104241;1257;63818;-56
2024/02/14 02:31:38;;;;;;;22.40;11.90;;;;;;;10.16;66.49;100071.05;104108;1257;63054;-57
2024/02/14 02:34:05;;;;;;;19.00;12.60;;;;;;;10.11;66.56;100066.23;104146;1260;60727;-57
2024/02/14 02:36:34;;;;;;;19.50;11.60;;;;;;;10.08;66.55;100069.27;108548;1257;63680;-58
2024/02/14 02:39:02;;;;;;;9.10;4.90;;;;;;;10.06;66.38;100071.21;108617;1254;61407;-57
2024/02/14 02:41:31;;;;;;;17.80;10.50;;;;;;;10.05;66.54;100075.98;108590;1257;63740;-59
2024/02/14 02:43:59;;;;;;;18.00;10.90;;;;;;;10.04;66.71;100080.57;108600;1256;59843;-58
2024/02/14 02:46:27;;;;;;;17.10;10.40;;;;;;;10.05;66.81;100084.77;108514;1256;59972;-58
2024/02/14 02:48:55;;;;;;;10.00;4.80;;;;;;;10.07;67.05;100086.20;107720;1257;63657;-57
2024/02/14 02:51:23;;;;;;;16.80;9.40;;;;;;;10.06;66.97;100088.22;108573;1259;62303;-57
2024/02/14 02:53:53;;;;;;;13.10;9.10;;;;;;;10.07;66.78;100085.98;108578;1257;63801;-57
2024/02/14 02:56:22;;;;;;;14.10;8.80;;;;;;;10.09;66.30;100084.80;107641;1257;60569;-57
2024/02/14 02:58:49;;;;;;;15.60;9.10;;;;;;;10.07;66.09;100086.72;104037;1258;60311;-57
2024/02/14 03:01:17;;;;;;;15.70;9.40;;;;;;;9.99;66.19;100085.44;105330;1257;63772;-60
2024/02/14 03:03:45;;;;;;;9.10;4.50;;;;;;;9.90;66.22;100084.09;104079;1257;61007;-58
2024/02/14 03:06:13;;;;;;;12.50;7.80;;;;;;;9.84;66.15;100091.53;104197;1259;64312;-57
2024/02/14 03:08:40;;;;;;;14.30;8.30;;;;;;;9.83;66.23;100099.19;104245;1257;60079;-58
2024/02/14 03:11:09;;;;;;;9.60;6.80;;;;;;;9.81;66.33;100099.84;104166;1257;60530;-57
2024/02/14 03:13:40;;;;;;;9.10;4.30;;;;;;;9.79;66.42;100096.16;108523;1257;64965;-57
2024/02/14 03:16:08;;;;;;;13.70;7.60;;;;;;;9.75;66.28;100095.46;108606;1257;60194;-58
2024/02/14 03:18:37;;;;;;;8.70;3.50;;;;;;;9.71;66.28;100100.33;108582;1254;64348;-58
2024/02/14 03:21:06;;;;;;;9.00;6.40;;;;;;;9.69;66.12;100103.84;108566;1256;58838;-57
2024/02/14 03:23:33;;;;;;;10.00;6.60;;;;;;;9.68;66.14;100110.73;105586;1257;60358;-57
2024/02/14 03:26:02;;;;;;;10.80;5.20;;;;;;;9.67;66.16;100111.69;108604;1256;64898;-56
2024/02/14 03:28:30;;;;;;;18.40;7.50;;;;;;;9.64;66.22;100116.12;105352;1257;64496;-58
2024/02/14 03:30:57;;;;;;;14.20;7.30;;;;;;;9.51;66.45;100122.20;104982;1257;63685;-57
2024/02/14 03:33:25;;;;;;;8.20;3.80;;;;;;;9.46;66.65;100128.91;108573;1256;58704;-56
2024/02/14 03:35:53;;;;;;;7.90;2.80;;;;;;;9.49;66.66;100135.72;108653;1255;59119;-56
2024/02/14 03:38:31;;;;;;;11.60;6.70;;;;;;;9.54;66.51;100138.51;108628;1256;63724;-56
2024/02/14 03:40:59;;;;;;;8.50;2.90;;;;;;;9.53;66.49;100144.02;106958;1257;63260;-55
2024/02/14 03:43:27;;;;;;;15.80;6.20;;;;;;;9.53;66.48;100149.41;105025;1258;64268;-56
2024/02/14 03:45:56;;;;;;;10.40;6.30;;;;;;;9.45;66.71;100148.95;104545;1260;495509;-57
2024/02/14 03:51:31;;;;;;;10.60;6.20;;;;;;;8.92;68.15;100148.54;101442;1290;601275;-57
2024/02/14 03:53:59;;;;;;;11.90;6.30;;;;;;;9.18;67.18;100153.73;103547;1269;62452;-54
2024/02/14 03:56:27;;;;;;;5.50;2.70;;;;;;;9.18;67.18;100151.39;107775;1263;57695;-55
2024/02/14 03:58:54;;;;;;;13.00;6.10;;;;;;;9.13;67.23;100149.52;108038;1263;65408;-56
2024/02/14 04:01:22;;;;;;;6.90;2.40;;;;;;;9.06;67.54;100150.97;106453;1269;61290;-56
2024/02/14 04:03:50;;;;;;;5.90;2.40;;;;;;;9.01;67.58;100154.98;103070;1266;373324;-56
2024/02/14 04:06:17;;;;;;;8.20;4.90;;;;;;;9.01;67.82;100155.03;108066;1263;58806;-56
2024/02/14 04:08:45;;;;;;;9.20;5.10;;;;;;;9.02;67.94;100152.80;103762;1263;59301;-56
2024/02/14 04:11:14;;;;;;;6.60;2.60;;;;;;;9.01;68.00;100151.53;103772;1263;62104;-54
2024/02/14 04:13:41;;;;;;;7.20;3.00;;;;;;;8.97;68.09;100154.79;104804;1267;60121;-57
2024/02/14 04:16:09;;;;;;;8.90;5.40;;;;;;;8.96;68.15;100158.04;103783;1266;62449;-56
2024/02/14 04:18:37;;;;;;;6.50;2.80;;;;;;;8.96;68.22;100156.81;103525;1267;59910;-58
2024/02/14 04:21:07;;;;;;;10.80;5.30;;;;;;;8.96;68.24;100162.91;103664;1263;59671;-57
2024/02/14 04:23:35;;;;;;;5.30;1.90;;;;;;;8.95;68.47;100161.61;108102;1264;63024;-57
2024/02/14 04:26:03;;;;;;;8.10;5.30;;;;;;;8.92;68.46;100163.89;106448;1264;60140;-57
2024/02/14 04:28:31;;;;;;;5.60;2.00;;;;;;;8.93;68.34;100170.67;104929;1263;63732;-55
2024/02/14 04:30:58;;;;;;;7.70;5.10;;;;;;;8.93;68.25;100173.96;104545;1263;59799;-57
2024/02/14 04:33:26;;;;;;;6.90;2.40;;;;;;;8.93;68.41;100177.11;104168;1263;60229;-57
2024/02/14 04:35:55;;;;;;;6.20;2.80;;;;;;;8.91;68.56;100182.19;105292;1262;62912;-55
2024/02/14 04:38:23;;;;;;;10.00;5.90;;;;;;;8.90;68.55;100177.73;103754;1267;60130;-56
2024/02/14 04:40:50;;;;;;;6.70;3.20;;;;;;;8.91;68.47;100180.98;103602;1263;63775;-58
2024/02/14 04:43:18;;;;;;;9.70;5.30;;;;;;;8.93;68.43;100185.19;103506;1264;59784;-56
2024/02/14 04:45:46;;;;;;;7.40;2.70;;;;;;;8.91;68.48;100187.79;103546;1268;59818;-56
2024/02/14 04:48:14;;;;;;;8.50;2.90;;;;;;;8.84;68.52;100189.93;103605;1267;64120;-60
2024/02/14 04:50:42;;;;;;;7.90;2.70;;;;;;;8.80;68.29;100194.02;105615;1267;68979;-57
2024/02/14 04:53:10;;;;;;;10.70;5.90;;;;;;;8.81;68.20;100196.10;107779;1265;62477;-58
2024/02/14 04:55:37;;;;;;;7.90;5.30;;;;;;;8.74;68.21;100196.40;108084;1260;59185;-58
2024/02/14 04:58:05;;;;;;;5.00;1.80;;;;;;;8.66;68.41;100198.05;106184;1263;59804;-57
2024/02/14 05:00:33;;;;;;;7.40;4.00;;;;;;;8.63;68.49;100194.60;108078;1262;63105;-57
2024/02/14 05:03:01;;;;;;;8.60;5.90;;;;;;;8.62;68.39;100192.59;108123;1261;61329;-56
2024/02/14 05:05:29;;;;;;;6.10;2.70;;;;;;;8.56;68.43;100190.74;108094;1263;66525;-56
2024/02/14 05:07:58;;;;;;;5.60;2.20;;;;;;;8.48;68.46;100186.09;108100;1263;58168;-56
2024/02/14 05:10:25;;;;;;;6.90;4.40;;;;;;;8.44;68.39;100184.36;108081;1261;58293;-54
2024/02/14 05:12:53;;;;;;;4.90;1.90;;;;;;;8.37;68.45;100186.71;108016;1263;65581;-55
2024/02/14 05:15:20;;;;;;;9.50;6.00;;;;;;;8.33;68.54;100196.09;108037;1260;64147;-71
2024/02/14 05:17:49;;;;;;;6.60;2.60;;;;;;;8.33;68.58;100201.50;108108;1265;63769;-70
2024/02/14 05:20:17;;;;;;;10.40;4.50;;;;;;;8.33;68.57;100211.67;108058;1263;59547;-62
2024/02/14 05:22:45;;;;;;;4.70;1.60;;;;;;;8.35;68.48;100220.24;104575;1262;59750;-69
2024/02/14 05:25:12;;;;;;;6.60;3.80;;;;;;;8.34;68.52;100229.03;103348;1263;64173;-67
2024/02/14 05:27:40;;;;;;;5.60;1.10;;;;;;;8.33;68.55;100231.60;103453;1263;61371;-62
2024/02/14 05:30:09;;;;;;;6.10;3.30;;;;;;;8.34;68.31;100233.43;103546;1260;64722;-64
2024/02/14 05:32:37;;;;;;;11.30;2.40;;;;;;;8.35;68.58;100236.66;108008;1262;59004;-61
2024/02/14 05:35:05;;;;;;;12.20;7.20;;;;;;;8.43;68.75;100241.67;108129;1263;58410;-69
2024/02/14 05:37:33;;;;;;;6.80;1.80;;;;;;;8.51;68.83;100246.58;106272;1263;67166;-70
2024/02/14 05:40:06;;;;;;;6.40;3.80;;;;;;;8.56;68.69;100250.53;104951;1268;60183;-66
2024/02/14 05:42:34;;;;;;;5.90;1.90;;;;;;;8.59;68.07;100251.05;106567;1265;62474;-64
2024/02/14 05:45:03;;;;;;;16.30;7.20;;;;;;;8.58;67.51;100250.63;104372;1264;59705;-64
2024/02/14 05:47:31;;;;;;;8.70;2.40;;;;;;;8.47;67.40;100253.83;108505;1257;59904;-68
2024/02/14 05:49:59;;;;;;;4.10;1.30;;;;;;;8.38;67.43;100259.35;108414;1256;65146;-65
2024/02/14 05:52:27;;;;;;;5.10;1.50;;;;;;;8.34;67.44;100260.18;108479;1257;61372;-67
2024/02/14 05:54:54;;;;;;;8.90;3.90;;;;;;;8.33;67.46;100260.95;108443;1254;64116;-55
2024/02/14 05:57:22;;;;;;;8.30;3.30;;;;;;;8.31;67.42;100264.93;108347;1255;60461;-60
2024/02/14 05:59:51;;;;;;;5.90;1.80;;;;;;;8.26;67.35;100269.86;108732;1256;57625;-68
2024/02/14 06:02:18;;;;;;;8.90;4.00;;;;;;;8.20;67.56;100274.42;108534;1255;64163;-65
2024/02/14 06:04:46;;;;;;;5.80;1.50;;;;;;;8.19;67.50;100274.54;108503;1257;61377;-68
2024/02/14 06:07:13;;;;;;;8.00;3.90;;;;;;;8.20;67.44;100275.16;108488;1257;64818;-63
2024/02/14 06:09:41;;;;;;;5.60;1.70;;;;;;;8.18;67.56;100275.15;108462;1257;58983;-69
2024/02/14 06:12:09;;;;;;;4.80;2.10;;;;;;;8.12;67.77;100279.91;108461;1256;59995;-63
2024/02/14 06:14:36;;;;;;;5.80;3.30;;;;;;;8.12;67.59;100280.78;108441;1255;64596;-60
2024/02/14 06:17:04;;;;;;;6.40;3.10;;;;;;;8.16;67.48;100282.45;108514;1256;61313;-69
2024/02/14 06:19:33;;;;;;;6.20;1.80;;;;;;;8.15;67.44;100282.65;108430;1256;62629;-68
2024/02/14 06:22:02;;;;;;;6.40;3.20;;;;;;;8.09;67.49;100284.15;108412;1256;58116;-65
2024/02/14 06:24:30;;;;;;;4.40;1.50;;;;;;;8.00;67.56;100286.14;108346;1257;59215;-65
2024/02/14 06:26:57;;;;;;;6.00;3.20;;;;;;;7.96;67.56;100288.89;108433;1256;64157;-64
2024/02/14 06:29:25;;;;;;;5.60;1.80;;;;;;;7.90;67.71;100291.77;108479;1254;60146;-69
2024/02/14 06:31:53;;;;;;;5.50;1.80;;;;;;;7.82;68.08;100291.48;108453;1255;63748;-65
2024/02/14 06:34:21;;;;;;;5.70;3.00;;;;;;;7.79;68.13;100296.92;108436;1256;59556;-66
2024/02/14 06:36:49;;;;;;;3.80;1.50;;;;;;;7.78;68.18;100299.74;108540;1255;59363;-68
2024/02/14 06:39:16;;;;;;;5.50;2.30;;;;;;;7.72;68.35;100298.94;107715;1257;62815;-65
2024/02/14 06:41:45;;;;;;;6.00;3.00;;;;;;;7.71;68.39;100307.75;108331;1257;60102;-66
2024/02/14 06:44:13;;;;;;;7.50;3.40;;;;;;;7.74;68.35;100311.56;108445;1259;62493;-62
2024/02/14 06:46:41;;;;;;;5.80;2.00;;;;;;;7.73;68.50;100318.31;107027;1260;61708;-65
2024/02/14 06:49:09;;;;;;;4.30;1.70;;;;;;;7.71;68.59;100318.75;104055;1257;60001;-66
2024/02/14 06:51:37;;;;;;;4.00;1.60;;;;;;;7.68;68.72;100320.23;104086;1257;62911;-65
2024/02/14 06:54:05;;;;;;;7.30;3.70;;;;;;;7.70;68.69;100319.23;104199;1259;60117;-66
2024/02/14 06:56:33;;;;;;;4.40;1.10;;;;;;;7.73;68.45;100322.67;108441;1254;62652;-66
2024/02/14 06:59:02;;;;;;;6.60;3.40;;;;;;;7.64;68.46;100321.53;106878;1259;59699;-65
2024/02/14 07:01:30;;;;;;;5.80;2.20;;;;;;;7.60;68.53;100322.09;108447;1254;58841;-65
2024/02/14 07:03:58;;;;;;;4.60;1.60;;;;;;;7.57;68.54;100322.30;108606;1254;64548;-68
2024/02/14 07:06:26;;;;;;;6.50;3.50;;;;;;;7.56;68.43;100319.05;108559;1254;60132;-55
2024/02/14 07:08:54;;;;;;;4.80;1.90;;;;;;;7.50;68.63;100318.95;105537;1254;63686;-64
2024/02/14 07:11:22;;;;;;;3.40;1.00;;;;;;;7.49;68.66;100322.55;108751;1256;59359;-64
2024/02/14 07:13:49;;;;;;;4.60;1.70;;;;;;;7.48;68.67;100323.81;108614;1259;57940;-64
2024/02/14 07:16:17;;;;;;;6.20;3.40;;;;;;;7.48;68.57;100324.69;108570;1254;64188;-63
2024/02/14 07:18:45;;;;;;;3.90;1.00;;;;;;;7.48;68.57;100327.16;105477;1260;61549;-64
2024/02/14 07:21:12;;;;;;;5.30;1.70;;;;;;;7.42;68.51;100321.04;105046;1260;62526;-63
2024/02/14 07:23:40;;;;;;;6.80;3.30;;;;;;;7.45;68.46;100324.06;105878;1253;59820;-63
2024/02/14 07:26:08;;;;;;;4.60;1.30;;;;;;;7.44;68.59;100328.29;104616;1250;59635;-62
2024/02/14 07:28:35;;;;;;;3.90;1.50;;;;;;;7.41;68.57;100329.91;104395;1255;65176;-68
2024/02/14 07:31:03;;;;;;;7.30;3.70;;;;;;;7.38;68.67;100332.73;106222;1250;60093;-67
2024/02/14 07:33:31;;;;;;;5.00;1.80;;;;;;;7.38;68.56;100338.95;105746;1250;62534;-62
2024/02/14 07:35:59;;;;;;;4.40;1.40;;;;;;;7.32;68.48;100336.59;104431;1252;61491;-62
2024/02/14 07:38:27;;;;;;;6.80;1.50;;;;;;;7.30;68.55;100345.12;105733;1256;59507;-63
2024/02/14 07:40:55;;;;;;;6.60;2.40;;;;;;;7.32;68.51;100343.75;109174;1250;65663;-64
2024/02/14 07:43:22;;;;;;;5.00;1.70;;;;;;;7.31;68.38;100344.84;106889;1253;60107;-62
2024/02/14 07:45:50;;;;;;;7.80;2.60;;;;;;;7.29;68.49;100347.46;105129;1254;62518;-64
2024/02/14 07:48:18;;;;;;;4.80;1.90;;;;;;;7.27;68.64;100354.36;105044;1250;59769;-62
2024/02/14 07:50:45;;;;;;;6.20;2.40;;;;;;;7.30;68.74;100354.55;105071;1250;59693;-64
2024/02/14 07:53:13;;;;;;;7.70;4.50;;;;;;;7.35;68.68;100356.95;105197;1251;62914;-65
2024/02/14 07:55:41;;;;;;;5.20;2.30;;;;;;;7.42;68.69;100354.60;105641;1257;60238;-65
2024/02/14 07:58:09;;;;;;;6.30;2.40;;;;;;;7.46;68.65;100350.31;105603;1253;62488;-63
2024/02/14 08:00:36;;;;;;;7.80;3.60;;;;;;;7.46;68.66;100355.35;105531;1253;60448;-63
2024/02/14 08:03:05;;;;;;;10.80;5.80;;;;;;;7.48;68.54;100359.46;105776;1250;60611;-62
2024/02/14 08:05:33;;;;;;;10.60;3.60;;;;;;;7.52;68.39;100361.76;105674;1256;65068;-65
2024/02/14 08:08:01;;;;;;;8.40;2.80;;;;;;;7.56;68.28;100364.66;106272;1257;60635;-66
2024/02/14 08:10:29;;;;;;;11.80;4.70;;;;;;;7.54;68.23;100370.22;106288;1250;74905;-62
2024/02/14 08:12:58;;;;;;;7.80;3.30;;;;;;;7.52;68.29;100373.34;104960;1253;60457;-63
2024/02/14 08:15:26;;;;;;;6.90;3.80;;;;;;;7.50;68.13;100377.10;104476;1257;60499;-63
2024/02/14 08:17:56;;;;;;;6.50;2.90;;;;;;;7.52;67.98;100376.44;104328;1256;66104;-64
2024/02/14 08:20:29;;;;;;;7.50;2.80;;;;;;;7.57;67.97;100382.92;104406;1255;60420;-63
2024/02/14 08:22:57;;;;;;;11.10;2.90;;;;;;;7.59;68.13;100386.31;104348;1250;74958;-65
2024/02/14 08:25:25;;;;;;;10.70;5.40;;;;;;;7.61;68.20;100388.26;104443;1256;60566;-62
2024/02/14 08:27:52;;;;;;;6.70;2.30;;;;;;;7.63;68.22;100388.61;104454;1250;60444;-64
2024/02/14 08:30:20;;;;;;;7.10;3.40;;;;;;;7.70;67.99;100395.33;104396;1257;67354;-65
2024/02/14 08:32:47;;;;;;;8.50;3.00;;;;;;;7.75;67.89;100401.80;104449;1251;61449;-67
2024/02/14 08:35:16;;;;;;;6.00;2.20;;;;;;;7.78;67.98;100404.86;104407;1257;62610;-63
2024/02/14 08:37:43;;;;;;;8.80;4.30;;;;;;;7.78;68.01;100411.36;108849;1250;58888;-63
2024/02/14 08:40:12;;;;;;;6.80;2.40;;;;;;;7.81;67.71;100416.20;105738;1252;61814;-65
2024/02/14 08:42:39;;;;;;;6.20;2.10;;;;;;;7.87;67.54;100423.69;104525;1257;65393;-63
2024/02/14 08:45:09;;;;;;;9.30;5.10;;;;;;;7.94;67.29;100424.98;104503;1256;71460;-64
2024/02/14 08:47:37;;;;;;;6.20;1.90;;;;;;;7.96;67.23;100430.56;108818;1256;62578;-63
2024/02/14 08:50:05;;;;;;;5.30;1.80;;;;;;;7.96;67.19;100437.04;108797;1251;59703;-65
2024/02/14 08:52:32;;;;;;;7.90;4.00;;;;;;;7.99;66.93;100432.13;108835;1253;58544;-59
2024/02/14 08:55:00;;;;;;;4.30;1.30;;;;;;;8.01;66.71;100433.73;108724;1253;63905;-68
2024/02/14 08:57:28;;;;;;;4.70;1.60;;;;;;;7.96;66.87;100434.59;108832;1252;61990;-62
2024/02/14 08:59:56;;;;;;;9.70;3.40;;;;;;;7.91;66.68;100433.52;105348;1254;75197;-62
2024/02/14 09:02:25;;;;;;;5.80;2.20;;;;;;;7.91;66.46;100435.96;104778;1256;60704;-61
2024/02/14 09:04:53;;;;;;;4.60;1.50;;;;;;;7.88;66.32;100438.28;104331;1253;61200;-61
2024/02/14 09:07:21;;;;;;;7.20;2.40;;;;;;;7.74;66.44;100437.30;106160;1250;67737;-63
2024/02/14 09:09:48;;;;;;;5.40;1.60;;;;;;;7.65;66.66;100438.28;104261;1252;63755;-59
2024/02/14 09:12:16;;;;;;;4.60;1.60;;;;;;;7.65;66.75;100442.77;104318;1253;77212;-62
2024/02/14 09:14:44;;;;;;;6.80;2.80;;;;;;;7.67;66.69;100445.66;104457;1251;59322;-60
2024/02/14 09:17:12;;;;;;;2.80;1.10;;;;;;;7.55;66.80;100440.98;104481;1253;59800;-61
2024/02/14 09:19:39;;;;;;;3.90;1.20;;;;;;;7.52;66.98;100437.52;108812;1251;63907;-61
2024/02/14 09:22:07;;;;;;;6.40;3.00;;;;;;;7.53;66.99;100436.59;105686;1252;60891;-66
2024/02/14 09:24:35;;;;;;;3.70;1.00;;;;;;;7.57;66.99;100449.79;104499;1253;64493;-63
2024/02/14 09:27:05;;;;;;;3.80;1.50;;;;;;;7.55;67.04;100452.38;104397;1253;60531;-68
2024/02/14 09:29:34;;;;;;;4.50;1.20;;;;;;;7.58;67.03;100454.23;108864;1250;61002;-70
2024/02/14 09:32:01;;;;;;;7.50;3.50;;;;;;;7.65;66.88;100451.88;108873;1251;65557;-65
2024/02/14 09:34:29;;;;;;;5.30;1.80;;;;;;;7.63;66.96;100451.66;108877;1253;74526;-68
2024/02/14 09:36:58;;;;;;;4.30;1.40;;;;;;;7.64;67.06;100453.86;108822;1251;64036;-71
2024/02/14 09:39:26;;;;;;;7.10;3.70;;;;;;;7.70;66.86;100453.47;108916;1251;59102;-58
2024/02/14 09:41:55;;;;;;;5.10;2.00;;;;;;;7.78;66.75;100451.36;108891;1250;59611;-61
2024/02/14 09:44:23;;;;;;;9.00;4.60;;;;;;;7.83;66.60;100451.37;106009;1250;63824;-64
2024/02/14 09:46:51;;;;;;;9.30;2.40;;;;;;;7.84;66.52;100451.49;104220;1258;60396;-65
2024/02/14 09:49:19;;;;;;;5.20;1.80;;;;;;;7.86;66.37;100455.72;108852;1253;64725;-60
2024/02/14 09:51:47;;;;;;;6.30;3.20;;;;;;;7.89;66.04;100458.66;108862;1252;58887;-59
2024/02/14 09:54:14;;;;;;;4.80;1.60;;;;;;;7.91;65.94;100459.91;108681;1253;58768;-62
2024/02/14 09:56:48;;;;;;;7.70;3.50;;;;;;;7.88;65.69;100459.89;104505;1253;64086;-60
2024/02/14 09:59:15;;;;;;;5.80;1.60;;;;;;;7.81;65.78;100464.23;104839;1257;60483;-64
2024/02/14 10:01:43;;;;;;;6.80;3.50;;;;;;;7.84;65.67;100464.05;104447;1257;65519;-62
2024/02/14 10:04:11;;;;;;;5.30;1.50;;;;;;;7.86;65.87;100466.23;104447;1250;60697;-60
2024/02/14 10:06:39;;;;;;;7.70;3.60;;;;;;;7.81;66.07;100463.37;104530;1253;61395;-59
2024/02/14 10:09:07;;;;;;;5.90;2.00;;;;;;;7.79;66.16;100463.54;104366;1258;65473;-64
2024/02/14 10:11:35;;;;;;;5.90;2.10;;;;;;;7.83;66.25;100459.92;104280;1259;62271;-61
2024/02/14 10:14:07;;;;;;;8.20;2.20;;;;;;;7.89;66.15;100466.70;105880;1253;64165;-63
2024/02/14 10:16:35;;;;;;;9.10;4.90;;;;;;;7.90;66.26;100468.55;104404;1253;60483;-61
2024/02/14 10:19:03;;;;;;;5.80;1.90;;;;;;;7.88;66.18;100471.97;108809;1252;61028;-65
2024/02/14 10:21:33;;;;;;;6.20;2.40;;;;;;;7.85;66.15;100470.44;108774;1253;65055;-59
2024/02/14 10:24:01;;;;;;;7.30;2.80;;;;;;;7.84;66.04;100470.34;105161;1253;73597;-60
2024/02/14 10:26:29;;;;;;;10.30;3.30;;;;;;;7.85;66.04;100467.11;104484;1257;74874;-64
2024/02/14 10:28:58;;;;;;;11.00;5.60;;;;;;;7.88;66.06;100470.41;108818;1253;62262;-61
2024/02/14 10:31:25;;;;;;;8.30;2.80;;;;;;;7.87;66.13;100471.02;108894;1251;58759;-64
2024/02/14 10:33:56;;;;;;;12.20;6.10;;;;;;;7.85;66.16;100466.77;105338;1256;65401;-61
2024/02/14 10:36:25;;;;;;;6.00;2.80;;;;;;;7.88;66.16;100468.11;105491;1253;60643;-67
2024/02/14 10:38:52;;;;;;;12.60;3.00;;;;;;;7.94;66.10;100468.60;106430;1257;66015;-64
2024/02/14 10:41:23;;;;;;;7.00;3.30;;;;;;;7.96;66.00;100472.45;106394;1250;60672;-63
2024/02/14 10:43:51;;;;;;;9.00;3.20;;;;;;;7.96;66.10;100475.44;104280;1253;60482;-62
2024/02/14 10:46:21;;;;;;;9.10;3.00;;;;;;;7.96;66.07;100474.79;104311;1250;65594;-62
2024/02/14 10:48:52;;;;;;;10.90;5.50;;;;;;;7.99;66.07;100474.21;108871;1256;72482;-63
2024/02/14 10:51:21;;;;;;;8.60;4.30;;;;;;;8.03;65.96;100476.94;108899;1251;63896;-62
2024/02/14 10:53:49;;;;;;;10.60;6.20;;;;;;;8.07;66.21;100478.61;108929;1254;60954;-62
2024/02/14 10:56:19;;;;;;;7.40;2.70;;;;;;;8.08;66.14;100479.03;108904;1252;58862;-65
2024/02/14 10:58:47;;;;;;;11.00;6.20;;;;;;;8.09;66.19;100480.54;105829;1254;65651;-65
2024/02/14 11:01:16;;;;;;;12.70;4.00;;;;;;;8.14;66.04;100479.18;106436;1256;60366;-64
2024/02/14 11:03:44;;;;;;;6.80;2.50;;;;;;;8.21;66.02;100477.30;104981;1251;64341;-67
2024/02/14 11:06:17;;;;;;;11.00;5.90;;;;;;;8.22;65.89;100481.56;104357;1259;60548;-65
2024/02/14 11:08:58;;;;;;;7.20;2.40;;;;;;;8.20;65.91;100481.00;108958;1251;60190;-62
2024/02/14 11:11:29;;;;;;;11.30;3.40;;;;;;;8.19;65.84;100480.20;108851;1256;66030;-65
2024/02/14 11:13:56;;;;;;;16.30;6.60;;;;;;;8.21;65.68;100479.39;108940;1251;61597;-63
2024/02/14 11:16:28;;;;;;;5.40;2.70;;;;;;;8.23;65.63;100478.89;108788;1251;66312;-61
2024/02/14 11:19:09;;;;;;;9.30;4.10;;;;;;;8.23;65.55;100481.36;108882;1253;59019;-63
2024/02/14 11:21:45;;;;;;;8.10;3.60;;;;;;;8.20;65.47;100483.95;108939;1251;60849;-63
2024/02/14 11:24:17;;;;;;;10.60;6.40;;;;;;;8.16;65.53;100479.89;108906;1253;68235;-64
2024/02/14 11:26:54;;;;;;;9.90;2.80;;;;;;;8.19;65.41;100482.98;108867;1251;60310;-61